sensor_id;sensor_type;location;lat;lon;timestamp;temperature;humidity
12111;DHT22;6119;52.372;8.990;2023-07-31T00:01:28;17.70;99.90
12111;DHT22;6119;52.372;8.990;2023-07-31T00:04:14;17.80;99.90
12111;DHT22;6119;52.372;8.990;2023-07-31T00:07:01;17.70;99.90
12111;DHT22;6119;52.372;8.990;2023-07-31T00:09:50;17.60;99.90
12111;DHT22;6119;52.372;8.990;2023-07-31T00:12:38;17.60;99.90
12111;DHT22;6119;52.372;8.990;2023-07-31T00:15:26;17.60;99.90
12111;DHT22;6119;52.372;8.990;2023-07-31T00:18:13;17.60;99.90
12111;DHT22;6119;52.372;8.990;2023-07-31T00:21:00;17.60;99.90
12111;DHT22;6119;52.372;8.990;2023-07-31T00:23:47;17.80;99.90
12111;DHT22;6119;52.372;8.990;2023-07-31T00:26:33;17.60;99.90
12111;DHT22;6119;52.372;8.990;2023-07-31T00:29:20;17.60;99.90
12111;DHT22;6119;52.372;8.990;2023-07-31T00:32:08;17.70;99.90
12111;DHT22;6119;52.372;8.990;2023-07-31T00:34:55;17.80;99.90
12111;DHT22;6119;52.372;8.990;2023-07-31T00:37:41;17.80;99.90
12111;DHT22;6119;52.372;8.990;2023-07-31T00:40:28;17.80;99.90
12111;DHT22;6119;52.372;8.990;2023-07-31T00:43:15;17.80;99.90
12111;DHT22;6119;52.372;8.990;2023-07-31T00:46:01;17.70;99.90
12111;DHT22;6119;52.372;8.990;2023-07-31T00:48:50;17.80;99.90
12111;DHT22;6119;52.372;8.990;2023-07-31T00:51:37;17.90;99.90
12111;DHT22;6119;52.372;8.990;2023-07-31T00:54:24;17.80;99.90
12111;DHT22;6119;52.372;8.990;2023-07-31T00:57:11;17.80;99.90
12111;DHT22;6119;52.372;8.990;2023-07-31T00:59:58;17.80;99.90
12111;DHT22;6119;52.372;8.990;2023-07-31T01:02:44;17.80;99.90
12111;DHT22;6119;52.372;8.990;2023-07-31T01:05:39;17.80;99.90
12111;DHT22;6119;52.372;8.990;2023-07-31T01:08:33;17.80;99.90
12111;DHT22;6119;52.372;8.990;2023-07-31T01:11:27;17.90;99.90
12111;DHT22;6119;52.372;8.990;2023-07-31T01:14:14;17.90;99.90
12111;DHT22;6119;52.372;8.990;2023-07-31T01:17:01;17.90;99.90
12111;DHT22;6119;52.372;8.990;2023-07-31T01:19:48;17.90;99.90
12111;DHT22;6119;52.372;8.990;2023-07-31T01:23:01;17.90;99.90
12111;DHT22;6119;52.372;8.990;2023-07-31T01:26:02;17.80;99.90
12111;DHT22;6119;52.372;8.990;2023-07-31T01:28:56;17.80;99.90
12111;DHT22;6119;52.372;8.990;2023-07-31T01:31:48;17.90;99.90
12111;DHT22;6119;52.372;8.990;2023-07-31T01:34:37;17.80;99.90
12111;DHT22;6119;52.372;8.990;2023-07-31T01:37:28;17.90;99.90
12111;DHT22;6119;52.372;8.990;2023-07-31T01:40:14;17.90;99.90
12111;DHT22;6119;52.372;8.990;2023-07-31T01:43:03;17.80;99.90
12111;DHT22;6119;52.372;8.990;2023-07-31T01:45:50;17.70;99.90
12111;DHT22;6119;52.372;8.990;2023-07-31T01:48:36;17.80;99.90
12111;DHT22;6119;52.372;8.990;2023-07-31T01:51:23;17.80;99.90
12111;DHT22;6119;52.372;8.990;2023-07-31T01:54:09;17.80;99.90
12111;DHT22;6119;52.372;8.990;2023-07-31T01:56:56;17.80;99.90
12111;DHT22;6119;52.372;8.990;2023-07-31T01:59:44;17.80;99.90
12111;DHT22;6119;52.372;8.990;2023-07-31T02:02:31;17.80;99.90
12111;DHT22;6119;52.372;8.990;2023-07-31T02:05:18;17.80;99.90
12111;DHT22;6119;52.372;8.990;2023-07-31T02:08:04;17.70;99.90
12111;DHT22;6119;52.372;8.990;2023-07-31T02:10:51;17.70;99.90
12111;DHT22;6119;52.372;8.990;2023-07-31T02:13:38;17.70;99.90
12111;DHT22;6119;52.372;8.990;2023-07-31T02:16:26;17.60;99.90
12111;DHT22;6119;52.372;8.990;2023-07-31T02:19:13;17.60;99.90
12111;DHT22;6119;52.372;8.990;2023-07-31T02:21:59;17.60;99.90
12111;DHT22;6119;52.372;8.990;2023-07-31T02:24:46;17.60;99.90
12111;DHT22;6119;52.372;8.990;2023-07-31T02:27:32;17.50;99.90
12111;DHT22;6119;52.372;8.990;2023-07-31T02:30:19;17.70;99.90
12111;DHT22;6119;52.372;8.990;2023-07-31T02:33:07;17.60;99.90
12111;DHT22;6119;52.372;8.990;2023-07-31T02:35:54;17.60;99.90
12111;DHT22;6119;52.372;8.990;2023-07-31T02:38:41;17.50;99.90
12111;DHT22;6119;52.372;8.990;2023-07-31T02:41:28;17.50;99.90
12111;DHT22;6119;52.372;8.990;2023-07-31T02:44:14;17.60;99.90
12111;DHT22;6119;52.372;8.990;2023-07-31T02:47:01;17.50;99.90
12111;DHT22;6119;52.372;8.990;2023-07-31T02:49:50;17.50;99.90
12111;DHT22;6119;52.372;8.990;2023-07-31T02:52:36;17.40;99.90
12111;DHT22;6119;52.372;8.990;2023-07-31T02:55:23;17.50;99.90
12111;DHT22;6119;52.372;8.990;2023-07-31T02:58:09;17.50;99.90
12111;DHT22;6119;52.372;8.990;2023-07-31T03:00:58;17.40;99.90
12111;DHT22;6119;52.372;8.990;2023-07-31T03:03:45;17.30;99.90
12111;DHT22;6119;52.372;8.990;2023-07-31T03:06:33;17.30;99.90
12111;DHT22;6119;52.372;8.990;2023-07-31T03:09:20;17.40;99.90
12111;DHT22;6119;52.372;8.990;2023-07-31T03:12:07;17.40;99.90
12111;DHT22;6119;52.372;8.990;2023-07-31T03:14:55;17.20;99.90
12111;DHT22;6119;52.372;8.990;2023-07-31T03:17:41;17.30;99.90
12111;DHT22;6119;52.372;8.990;2023-07-31T03:20:28;17.30;99.90
12111;DHT22;6119;52.372;8.990;2023-07-31T03:23:16;17.20;99.90
12111;DHT22;6119;52.372;8.990;2023-07-31T03:26:06;17.20;99.90
12111;DHT22;6119;52.372;8.990;2023-07-31T03:28:54;17.20;99.90
12111;DHT22;6119;52.372;8.990;2023-07-31T03:31:40;17.10;99.90
12111;DHT22;6119;52.372;8.990;2023-07-31T03:34:27;17.10;99.90
12111;DHT22;6119;52.372;8.990;2023-07-31T03:37:13;17.10;99.90
12111;DHT22;6119;52.372;8.990;2023-07-31T03:40:01;17.10;99.90
12111;DHT22;6119;52.372;8.990;2023-07-31T03:42:50;17.10;99.90
12111;DHT22;6119;52.372;8.990;2023-07-31T03:45:36;17.00;99.90
12111;DHT22;6119;52.372;8.990;2023-07-31T03:48:23;16.80;99.90
12111;DHT22;6119;52.372;8.990;2023-07-31T03:51:09;16.80;99.90
12111;DHT22;6119;52.372;8.990;2023-07-31T03:53:56;16.80;99.90
12111;DHT22;6119;52.372;8.990;2023-07-31T03:56:44;16.70;99.90
12111;DHT22;6119;52.372;8.990;2023-07-31T03:59:31;16.80;99.90
12111;DHT22;6119;52.372;8.990;2023-07-31T04:02:17;16.90;99.90
12111;DHT22;6119;52.372;8.990;2023-07-31T04:05:05;16.80;99.90
12111;DHT22;6119;52.372;8.990;2023-07-31T04:07:51;16.90;99.90
12111;DHT22;6119;52.372;8.990;2023-07-31T04:10:38;16.90;99.90
12111;DHT22;6119;52.372;8.990;2023-07-31T04:13:26;16.80;99.90
12111;DHT22;6119;52.372;8.990;2023-07-31T04:16:14;16.70;99.90
12111;DHT22;6119;52.372;8.990;2023-07-31T04:19:00;16.60;99.90
12111;DHT22;6119;52.372;8.990;2023-07-31T04:21:48;16.60;99.90
12111;DHT22;6119;52.372;8.990;2023-07-31T04:24:34;16.70;99.90
12111;DHT22;6119;52.372;8.990;2023-07-31T04:27:21;16.70;99.90
12111;DHT22;6119;52.372;8.990;2023-07-31T04:30:09;16.70;99.90
12111;DHT22;6119;52.372;8.990;2023-07-31T04:32:56;16.80;99.90
12111;DHT22;6119;52.372;8.990;2023-07-31T04:35:49;16.80;99.90
12111;DHT22;6119;52.372;8.990;2023-07-31T04:38:37;16.70;99.90
12111;DHT22;6119;52.372;8.990;2023-07-31T04:41:24;16.80;99.90
12111;DHT22;6119;52.372;8.990;2023-07-31T04:44:10;16.80;99.90
12111;DHT22;6119;52.372;8.990;2023-07-31T04:46:58;16.80;99.90
12111;DHT22;6119;52.372;8.990;2023-07-31T04:49:45;16.90;99.90
12111;DHT22;6119;52.372;8.990;2023-07-31T04:52:32;16.90;99.90
12111;DHT22;6119;52.372;8.990;2023-07-31T04:55:19;16.80;99.90
12111;DHT22;6119;52.372;8.990;2023-07-31T04:58:06;16.80;99.90
12111;DHT22;6119;52.372;8.990;2023-07-31T05:00:52;16.80;99.90
12111;DHT22;6119;52.372;8.990;2023-07-31T05:03:40;16.80;99.90
12111;DHT22;6119;52.372;8.990;2023-07-31T05:06:27;16.80;99.90
12111;DHT22;6119;52.372;8.990;2023-07-31T05:09:14;16.80;99.90
12111;DHT22;6119;52.372;8.990;2023-07-31T05:12:00;16.90;99.90
12111;DHT22;6119;52.372;8.990;2023-07-31T05:14:47;16.90;99.90
12111;DHT22;6119;52.372;8.990;2023-07-31T05:17:34;16.90;99.90
12111;DHT22;6119;52.372;8.990;2023-07-31T05:20:22;16.90;99.90
12111;DHT22;6119;52.372;8.990;2023-07-31T05:23:08;17.00;99.90
12111;DHT22;6119;52.372;8.990;2023-07-31T05:25:55;17.00;99.90
12111;DHT22;6119;52.372;8.990;2023-07-31T05:28:42;17.10;99.90
12111;DHT22;6119;52.372;8.990;2023-07-31T05:31:28;16.90;99.90
12111;DHT22;6119;52.372;8.990;2023-07-31T05:34:15;17.10;99.90
12111;DHT22;6119;52.372;8.990;2023-07-31T05:37:03;17.10;99.90
12111;DHT22;6119;52.372;8.990;2023-07-31T05:39:50;17.00;99.90
12111;DHT22;6119;52.372;8.990;2023-07-31T05:42:37;17.00;99.90
12111;DHT22;6119;52.372;8.990;2023-07-31T05:45:25;17.00;99.90
12111;DHT22;6119;52.372;8.990;2023-07-31T05:48:12;17.10;99.90
12111;DHT22;6119;52.372;8.990;2023-07-31T05:50:58;17.10;99.90
12111;DHT22;6119;52.372;8.990;2023-07-31T05:53:46;17.10;99.90
12111;DHT22;6119;52.372;8.990;2023-07-31T05:56:33;17.10;99.90
12111;DHT22;6119;52.372;8.990;2023-07-31T05:59:20;17.10;99.90
12111;DHT22;6119;52.372;8.990;2023-07-31T06:02:07;17.10;99.90
12111;DHT22;6119;52.372;8.990;2023-07-31T06:04:53;17.00;99.90
12111;DHT22;6119;52.372;8.990;2023-07-31T06:07:41;17.00;99.90
12111;DHT22;6119;52.372;8.990;2023-07-31T06:10:29;17.00;99.90
12111;DHT22;6119;52.372;8.990;2023-07-31T06:13:16;16.90;99.90
12111;DHT22;6119;52.372;8.990;2023-07-31T06:16:03;16.80;99.90
12111;DHT22;6119;52.372;8.990;2023-07-31T06:18:51;16.90;99.90
12111;DHT22;6119;52.372;8.990;2023-07-31T06:21:39;16.90;99.90
12111;DHT22;6119;52.372;8.990;2023-07-31T06:24:28;16.90;99.90
12111;DHT22;6119;52.372;8.990;2023-07-31T06:27:16;17.00;99.90
12111;DHT22;6119;52.372;8.990;2023-07-31T06:30:04;17.00;99.90
12111;DHT22;6119;52.372;8.990;2023-07-31T06:32:51;16.90;99.90
12111;DHT22;6119;52.372;8.990;2023-07-31T06:35:37;16.90;99.90
12111;DHT22;6119;52.372;8.990;2023-07-31T06:38:25;16.90;99.90
12111;DHT22;6119;52.372;8.990;2023-07-31T06:41:12;16.90;99.90
12111;DHT22;6119;52.372;8.990;2023-07-31T06:44:01;17.40;99.90
12111;DHT22;6119;52.372;8.990;2023-07-31T06:46:48;16.90;99.90
12111;DHT22;6119;52.372;8.990;2023-07-31T06:49:34;17.00;99.90
12111;DHT22;6119;52.372;8.990;2023-07-31T06:52:21;17.00;99.90
12111;DHT22;6119;52.372;8.990;2023-07-31T06:55:17;16.90;99.90
12111;DHT22;6119;52.372;8.990;2023-07-31T06:58:05;16.90;99.90
12111;DHT22;6119;52.372;8.990;2023-07-31T07:00:53;17.00;99.90
12111;DHT22;6119;52.372;8.990;2023-07-31T07:03:39;17.10;99.90
12111;DHT22;6119;52.372;8.990;2023-07-31T07:06:26;17.10;99.90
12111;DHT22;6119;52.372;8.990;2023-07-31T07:09:13;17.10;99.90
12111;DHT22;6119;52.372;8.990;2023-07-31T07:11:59;17.10;99.90
12111;DHT22;6119;52.372;8.990;2023-07-31T07:14:46;17.10;99.90
12111;DHT22;6119;52.372;8.990;2023-07-31T07:17:34;17.20;99.90
12111;DHT22;6119;52.372;8.990;2023-07-31T07:20:21;17.20;99.90
12111;DHT22;6119;52.372;8.990;2023-07-31T07:23:08;17.30;99.90
12111;DHT22;6119;52.372;8.990;2023-07-31T07:25:57;17.30;99.90
12111;DHT22;6119;52.372;8.990;2023-07-31T07:28:43;17.30;99.90
12111;DHT22;6119;52.372;8.990;2023-07-31T07:31:30;17.30;99.90
12111;DHT22;6119;52.372;8.990;2023-07-31T07:34:18;17.40;99.90
12111;DHT22;6119;52.372;8.990;2023-07-31T07:37:05;17.30;99.90
12111;DHT22;6119;52.372;8.990;2023-07-31T07:39:52;17.40;99.90
12111;DHT22;6119;52.372;8.990;2023-07-31T07:42:39;17.50;99.90
12111;DHT22;6119;52.372;8.990;2023-07-31T07:45:25;17.60;99.90
12111;DHT22;6119;52.372;8.990;2023-07-31T07:48:12;17.60;99.90
12111;DHT22;6119;52.372;8.990;2023-07-31T07:51:00;17.70;99.90
12111;DHT22;6119;52.372;8.990;2023-07-31T07:53:47;17.80;99.90
12111;DHT22;6119;52.372;8.990;2023-07-31T07:56:33;17.80;99.90
12111;DHT22;6119;52.372;8.990;2023-07-31T07:59:22;17.80;99.90
12111;DHT22;6119;52.372;8.990;2023-07-31T08:02:09;18.00;99.90
12111;DHT22;6119;52.372;8.990;2023-07-31T08:04:55;18.00;99.90
12111;DHT22;6119;52.372;8.990;2023-07-31T08:07:43;18.00;99.90
12111;DHT22;6119;52.372;8.990;2023-07-31T08:10:30;17.90;99.90
12111;DHT22;6119;52.372;8.990;2023-07-31T08:13:17;18.00;99.90
12111;DHT22;6119;52.372;8.990;2023-07-31T08:16:04;18.00;99.90
12111;DHT22;6119;52.372;8.990;2023-07-31T08:18:50;17.90;99.90
12111;DHT22;6119;52.372;8.990;2023-07-31T08:21:38;17.90;99.90
12111;DHT22;6119;52.372;8.990;2023-07-31T08:24:25;17.90;99.90
12111;DHT22;6119;52.372;8.990;2023-07-31T08:27:12;17.90;99.90
12111;DHT22;6119;52.372;8.990;2023-07-31T08:29:59;18.00;99.90
12111;DHT22;6119;52.372;8.990;2023-07-31T08:32:45;18.00;99.90
12111;DHT22;6119;52.372;8.990;2023-07-31T08:35:32;18.00;99.90
12111;DHT22;6119;52.372;8.990;2023-07-31T08:38:19;18.00;99.90
12111;DHT22;6119;52.372;8.990;2023-07-31T08:41:07;18.10;99.90
12111;DHT22;6119;52.372;8.990;2023-07-31T08:43:55;18.10;99.90
12111;DHT22;6119;52.372;8.990;2023-07-31T08:46:43;18.10;99.90
12111;DHT22;6119;52.372;8.990;2023-07-31T08:49:31;18.20;99.90
12111;DHT22;6119;52.372;8.990;2023-07-31T08:52:18;18.30;99.90
12111;DHT22;6119;52.372;8.990;2023-07-31T08:55:05;18.30;99.90
12111;DHT22;6119;52.372;8.990;2023-07-31T08:57:54;18.30;99.90
12111;DHT22;6119;52.372;8.990;2023-07-31T09:00:43;18.10;99.90
12111;DHT22;6119;52.372;8.990;2023-07-31T09:03:33;18.10;99.90
12111;DHT22;6119;52.372;8.990;2023-07-31T09:06:21;18.20;99.90
12111;DHT22;6119;52.372;8.990;2023-07-31T09:09:09;18.10;99.90
12111;DHT22;6119;52.372;8.990;2023-07-31T09:11:57;18.10;99.90
12111;DHT22;6119;52.372;8.990;2023-07-31T09:14:46;18.20;99.90
12111;DHT22;6119;52.372;8.990;2023-07-31T09:17:34;18.20;99.90
12111;DHT22;6119;52.372;8.990;2023-07-31T09:20:22;18.20;99.90
12111;DHT22;6119;52.372;8.990;2023-07-31T09:23:10;18.30;99.90
12111;DHT22;6119;52.372;8.990;2023-07-31T09:25:57;18.30;99.90
12111;DHT22;6119;52.372;8.990;2023-07-31T09:28:45;18.30;99.90
12111;DHT22;6119;52.372;8.990;2023-07-31T09:31:39;18.30;99.90
12111;DHT22;6119;52.372;8.990;2023-07-31T09:34:37;18.40;99.90
12111;DHT22;6119;52.372;8.990;2023-07-31T09:37:24;18.40;99.90
12111;DHT22;6119;52.372;8.990;2023-07-31T09:40:25;18.40;99.90
12111;DHT22;6119;52.372;8.990;2023-07-31T09:43:13;18.50;99.90
12111;DHT22;6119;52.372;8.990;2023-07-31T09:46:00;18.50;99.90
12111;DHT22;6119;52.372;8.990;2023-07-31T09:48:47;18.50;99.90
12111;DHT22;6119;52.372;8.990;2023-07-31T09:51:35;18.60;99.90
12111;DHT22;6119;52.372;8.990;2023-07-31T09:54:23;18.70;99.90
12111;DHT22;6119;52.372;8.990;2023-07-31T09:57:11;18.60;99.90
12111;DHT22;6119;52.372;8.990;2023-07-31T09:59:58;18.60;99.90
12111;DHT22;6119;52.372;8.990;2023-07-31T10:02:46;18.70;99.90
12111;DHT22;6119;52.372;8.990;2023-07-31T10:05:36;18.80;99.90
12111;DHT22;6119;52.372;8.990;2023-07-31T10:08:30;18.80;99.90
12111;DHT22;6119;52.372;8.990;2023-07-31T10:11:19;18.80;99.90
12111;DHT22;6119;52.372;8.990;2023-07-31T10:14:07;18.80;99.90
12111;DHT22;6119;52.372;8.990;2023-07-31T10:16:57;18.90;99.90
12111;DHT22;6119;52.372;8.990;2023-07-31T10:19:45;18.90;99.90
12111;DHT22;6119;52.372;8.990;2023-07-31T10:22:35;18.90;99.90
12111;DHT22;6119;52.372;8.990;2023-07-31T10:25:22;19.00;99.90
12111;DHT22;6119;52.372;8.990;2023-07-31T10:28:11;19.10;99.90
12111;DHT22;6119;52.372;8.990;2023-07-31T10:30:58;18.90;99.90
12111;DHT22;6119;52.372;8.990;2023-07-31T10:33:45;19.00;99.90
12111;DHT22;6119;52.372;8.990;2023-07-31T10:36:33;19.00;99.90
12111;DHT22;6119;52.372;8.990;2023-07-31T10:39:37;18.90;99.90
12111;DHT22;6119;52.372;8.990;2023-07-31T10:42:29;19.10;99.90
12111;DHT22;6119;52.372;8.990;2023-07-31T10:45:24;19.20;99.90
12111;DHT22;6119;52.372;8.990;2023-07-31T10:48:14;19.10;99.90
12111;DHT22;6119;52.372;8.990;2023-07-31T10:51:00;19.00;99.90
12111;DHT22;6119;52.372;8.990;2023-07-31T10:54:10;19.10;99.90
12111;DHT22;6119;52.372;8.990;2023-07-31T10:56:58;18.80;99.90
12111;DHT22;6119;52.372;8.990;2023-07-31T10:59:45;18.80;99.90
12111;DHT22;6119;52.372;8.990;2023-07-31T11:02:33;18.80;99.90
12111;DHT22;6119;52.372;8.990;2023-07-31T11:05:20;18.90;99.90
12111;DHT22;6119;52.372;8.990;2023-07-31T11:08:15;18.80;99.90
12111;DHT22;6119;52.372;8.990;2023-07-31T11:11:07;18.80;99.90
12111;DHT22;6119;52.372;8.990;2023-07-31T11:13:55;18.90;99.90
12111;DHT22;6119;52.372;8.990;2023-07-31T11:16:42;18.80;99.90
12111;DHT22;6119;52.372;8.990;2023-07-31T11:19:29;18.80;99.90
12111;DHT22;6119;52.372;8.990;2023-07-31T11:22:15;18.80;99.90
12111;DHT22;6119;52.372;8.990;2023-07-31T11:25:03;18.70;99.90
12111;DHT22;6119;52.372;8.990;2023-07-31T11:27:49;18.80;99.90
12111;DHT22;6119;52.372;8.990;2023-07-31T11:30:41;18.90;99.90
12111;DHT22;6119;52.372;8.990;2023-07-31T11:33:28;18.90;99.90
12111;DHT22;6119;52.372;8.990;2023-07-31T11:36:15;18.90;99.90
12111;DHT22;6119;52.372;8.990;2023-07-31T11:39:05;18.80;99.90
12111;DHT22;6119;52.372;8.990;2023-07-31T11:41:52;18.70;99.90
12111;DHT22;6119;52.372;8.990;2023-07-31T11:44:44;18.70;99.90
12111;DHT22;6119;52.372;8.990;2023-07-31T11:47:35;18.80;99.90
12111;DHT22;6119;52.372;8.990;2023-07-31T11:50:22;19.00;99.90
12111;DHT22;6119;52.372;8.990;2023-07-31T11:53:11;19.00;99.90
12111;DHT22;6119;52.372;8.990;2023-07-31T11:55:59;19.10;99.90
12111;DHT22;6119;52.372;8.990;2023-07-31T11:58:47;19.20;99.90
12111;DHT22;6119;52.372;8.990;2023-07-31T12:01:36;19.20;99.90
12111;DHT22;6119;52.372;8.990;2023-07-31T12:04:24;19.20;99.90
12111;DHT22;6119;52.372;8.990;2023-07-31T12:07:11;19.10;99.90
12111;DHT22;6119;52.372;8.990;2023-07-31T12:09:58;19.10;99.90
12111;DHT22;6119;52.372;8.990;2023-07-31T12:12:59;19.20;99.90
12111;DHT22;6119;52.372;8.990;2023-07-31T12:15:48;19.30;99.90
12111;DHT22;6119;52.372;8.990;2023-07-31T12:18:36;19.20;99.90
12111;DHT22;6119;52.372;8.990;2023-07-31T12:21:27;19.10;99.90
12111;DHT22;6119;52.372;8.990;2023-07-31T12:24:14;19.00;99.90
12111;DHT22;6119;52.372;8.990;2023-07-31T12:27:08;19.10;99.90
12111;DHT22;6119;52.372;8.990;2023-07-31T12:29:55;19.00;99.90
12111;DHT22;6119;52.372;8.990;2023-07-31T12:32:42;19.20;99.90
12111;DHT22;6119;52.372;8.990;2023-07-31T12:35:36;19.30;99.90
12111;DHT22;6119;52.372;8.990;2023-07-31T12:38:24;19.40;99.90
12111;DHT22;6119;52.372;8.990;2023-07-31T12:41:11;19.40;99.90
12111;DHT22;6119;52.372;8.990;2023-07-31T12:43:58;19.40;99.90
12111;DHT22;6119;52.372;8.990;2023-07-31T12:46:45;19.40;99.90
12111;DHT22;6119;52.372;8.990;2023-07-31T12:49:31;19.40;99.90
12111;DHT22;6119;52.372;8.990;2023-07-31T12:52:18;19.40;99.90
12111;DHT22;6119;52.372;8.990;2023-07-31T12:55:07;19.40;99.90
12111;DHT22;6119;52.372;8.990;2023-07-31T12:57:56;19.50;99.90
12111;DHT22;6119;52.372;8.990;2023-07-31T13:00:43;19.50;99.90
12111;DHT22;6119;52.372;8.990;2023-07-31T13:03:29;19.40;99.90
12111;DHT22;6119;52.372;8.990;2023-07-31T13:06:17;19.50;99.90
12111;DHT22;6119;52.372;8.990;2023-07-31T13:09:03;19.50;99.90
12111;DHT22;6119;52.372;8.990;2023-07-31T13:11:52;19.50;99.90
12111;DHT22;6119;52.372;8.990;2023-07-31T13:14:38;19.50;99.90
12111;DHT22;6119;52.372;8.990;2023-07-31T13:17:26;19.50;99.90
12111;DHT22;6119;52.372;8.990;2023-07-31T13:20:13;19.50;99.90
12111;DHT22;6119;52.372;8.990;2023-07-31T13:22:59;19.50;99.90
12111;DHT22;6119;52.372;8.990;2023-07-31T13:25:46;19.60;99.90
12111;DHT22;6119;52.372;8.990;2023-07-31T13:28:34;19.60;99.90
12111;DHT22;6119;52.372;8.990;2023-07-31T13:31:21;19.60;99.90
12111;DHT22;6119;52.372;8.990;2023-07-31T13:34:09;19.50;99.90
12111;DHT22;6119;52.372;8.990;2023-07-31T13:36:56;19.50;99.90
12111;DHT22;6119;52.372;8.990;2023-07-31T13:39:42;19.50;99.90
12111;DHT22;6119;52.372;8.990;2023-07-31T13:42:29;19.50;99.90
12111;DHT22;6119;52.372;8.990;2023-07-31T13:45:17;19.30;99.90
12111;DHT22;6119;52.372;8.990;2023-07-31T13:48:04;19.40;99.90
12111;DHT22;6119;52.372;8.990;2023-07-31T13:50:51;19.40;99.90
12111;DHT22;6119;52.372;8.990;2023-07-31T13:53:38;19.40;99.90
12111;DHT22;6119;52.372;8.990;2023-07-31T13:56:24;19.30;99.90
12111;DHT22;6119;52.372;8.990;2023-07-31T13:59:11;19.20;99.90
12111;DHT22;6119;52.372;8.990;2023-07-31T14:02:02;19.40;99.90
12111;DHT22;6119;52.372;8.990;2023-07-31T14:04:49;19.30;99.90
12111;DHT22;6119;52.372;8.990;2023-07-31T14:07:36;19.30;99.90
12111;DHT22;6119;52.372;8.990;2023-07-31T14:10:23;19.40;99.90
12111;DHT22;6119;52.372;8.990;2023-07-31T14:13:09;19.40;99.90
12111;DHT22;6119;52.372;8.990;2023-07-31T14:15:56;19.50;99.90
12111;DHT22;6119;52.372;8.990;2023-07-31T14:18:44;19.60;99.90
12111;DHT22;6119;52.372;8.990;2023-07-31T14:21:32;19.70;99.90
12111;DHT22;6119;52.372;8.990;2023-07-31T14:24:19;19.90;99.90
12111;DHT22;6119;52.372;8.990;2023-07-31T14:27:06;20.20;99.90
12111;DHT22;6119;52.372;8.990;2023-07-31T14:29:53;20.20;99.90
12111;DHT22;6119;52.372;8.990;2023-07-31T14:32:39;20.30;99.90
12111;DHT22;6119;52.372;8.990;2023-07-31T14:35:27;20.30;99.90
12111;DHT22;6119;52.372;8.990;2023-07-31T14:38:14;20.40;99.90
12111;DHT22;6119;52.372;8.990;2023-07-31T14:41:00;20.50;99.90
12111;DHT22;6119;52.372;8.990;2023-07-31T14:43:47;20.50;99.90
12111;DHT22;6119;52.372;8.990;2023-07-31T14:46:34;20.50;99.90
12111;DHT22;6119;52.372;8.990;2023-07-31T14:49:20;20.40;99.90
12111;DHT22;6119;52.372;8.990;2023-07-31T14:52:08;20.50;99.90
12111;DHT22;6119;52.372;8.990;2023-07-31T14:54:55;20.50;99.90
12111;DHT22;6119;52.372;8.990;2023-07-31T14:57:42;20.40;99.90
12111;DHT22;6119;52.372;8.990;2023-07-31T15:00:29;20.30;99.90
12111;DHT22;6119;52.372;8.990;2023-07-31T15:03:16;20.30;99.90
12111;DHT22;6119;52.372;8.990;2023-07-31T15:06:03;20.10;99.90
12111;DHT22;6119;52.372;8.990;2023-07-31T15:08:52;20.00;99.90
12111;DHT22;6119;52.372;8.990;2023-07-31T15:11:39;19.80;99.90
12111;DHT22;6119;52.372;8.990;2023-07-31T15:14:26;20.00;99.90
12111;DHT22;6119;52.372;8.990;2023-07-31T15:17:13;20.10;99.90
12111;DHT22;6119;52.372;8.990;2023-07-31T15:20:00;20.10;99.90
12111;DHT22;6119;52.372;8.990;2023-07-31T15:22:49;20.10;99.90
12111;DHT22;6119;52.372;8.990;2023-07-31T15:25:37;20.20;99.90
12111;DHT22;6119;52.372;8.990;2023-07-31T15:28:24;20.30;99.90
12111;DHT22;6119;52.372;8.990;2023-07-31T15:31:11;20.40;99.90
12111;DHT22;6119;52.372;8.990;2023-07-31T15:33:57;20.50;99.90
12111;DHT22;6119;52.372;8.990;2023-07-31T15:36:44;20.60;99.90
12111;DHT22;6119;52.372;8.990;2023-07-31T15:39:31;20.60;99.90
12111;DHT22;6119;52.372;8.990;2023-07-31T15:42:19;20.60;99.90
12111;DHT22;6119;52.372;8.990;2023-07-31T15:45:07;20.50;99.90
12111;DHT22;6119;52.372;8.990;2023-07-31T15:47:55;20.50;99.90
12111;DHT22;6119;52.372;8.990;2023-07-31T15:50:42;20.60;99.90
12111;DHT22;6119;52.372;8.990;2023-07-31T15:53:29;20.40;99.90
12111;DHT22;6119;52.372;8.990;2023-07-31T15:56:15;20.30;99.90
12111;DHT22;6119;52.372;8.990;2023-07-31T15:59:04;20.30;99.90
12111;DHT22;6119;52.372;8.990;2023-07-31T16:01:51;20.30;99.90
12111;DHT22;6119;52.372;8.990;2023-07-31T16:04:37;20.30;99.90
12111;DHT22;6119;52.372;8.990;2023-07-31T16:07:25;20.20;99.90
12111;DHT22;6119;52.372;8.990;2023-07-31T16:10:12;20.20;99.90
12111;DHT22;6119;52.372;8.990;2023-07-31T16:12:58;20.20;99.90
12111;DHT22;6119;52.372;8.990;2023-07-31T16:15:46;20.20;99.90
12111;DHT22;6119;52.372;8.990;2023-07-31T16:18:33;20.30;99.90
12111;DHT22;6119;52.372;8.990;2023-07-31T16:21:20;20.20;99.90
12111;DHT22;6119;52.372;8.990;2023-07-31T16:24:06;20.20;99.90
12111;DHT22;6119;52.372;8.990;2023-07-31T16:26:53;20.20;99.90
12111;DHT22;6119;52.372;8.990;2023-07-31T16:29:39;20.30;99.90
12111;DHT22;6119;52.372;8.990;2023-07-31T16:32:27;20.30;99.90
12111;DHT22;6119;52.372;8.990;2023-07-31T16:35:14;20.30;99.90
12111;DHT22;6119;52.372;8.990;2023-07-31T16:38:01;20.20;99.90
12111;DHT22;6119;52.372;8.990;2023-07-31T16:40:47;20.30;99.90
12111;DHT22;6119;52.372;8.990;2023-07-31T16:43:34;20.20;99.90
12111;DHT22;6119;52.372;8.990;2023-07-31T16:46:21;20.20;99.90
12111;DHT22;6119;52.372;8.990;2023-07-31T16:49:09;20.10;99.90
12111;DHT22;6119;52.372;8.990;2023-07-31T16:51:57;20.10;99.90
12111;DHT22;6119;52.372;8.990;2023-07-31T16:54:44;20.10;99.90
12111;DHT22;6119;52.372;8.990;2023-07-31T16:57:30;20.10;99.90
12111;DHT22;6119;52.372;8.990;2023-07-31T17:00:17;20.10;99.90
12111;DHT22;6119;52.372;8.990;2023-07-31T17:03:04;20.10;99.90
12111;DHT22;6119;52.372;8.990;2023-07-31T17:05:52;20.00;99.90
12111;DHT22;6119;52.372;8.990;2023-07-31T17:08:39;20.00;99.90
12111;DHT22;6119;52.372;8.990;2023-07-31T17:11:26;19.90;99.90
12111;DHT22;6119;52.372;8.990;2023-07-31T17:14:13;19.90;99.90
12111;DHT22;6119;52.372;8.990;2023-07-31T17:17:01;19.90;99.90
12111;DHT22;6119;52.372;8.990;2023-07-31T17:19:47;19.70;99.90
12111;DHT22;6119;52.372;8.990;2023-07-31T17:22:35;19.80;99.90
12111;DHT22;6119;52.372;8.990;2023-07-31T17:25:33;19.70;99.90
12111;DHT22;6119;52.372;8.990;2023-07-31T17:28:19;19.60;99.90
12111;DHT22;6119;52.372;8.990;2023-07-31T17:31:06;19.60;99.90
12111;DHT22;6119;52.372;8.990;2023-07-31T17:33:53;19.70;99.90
12111;DHT22;6119;52.372;8.990;2023-07-31T17:36:40;19.70;99.90
12111;DHT22;6119;52.372;8.990;2023-07-31T17:39:28;19.70;99.90
12111;DHT22;6119;52.372;8.990;2023-07-31T17:42:15;19.80;99.90
12111;DHT22;6119;52.372;8.990;2023-07-31T17:45:02;19.70;99.90
12111;DHT22;6119;52.372;8.990;2023-07-31T17:47:49;19.70;99.90
12111;DHT22;6119;52.372;8.990;2023-07-31T17:50:36;19.60;99.90
12111;DHT22;6119;52.372;8.990;2023-07-31T17:53:23;19.60;99.90
12111;DHT22;6119;52.372;8.990;2023-07-31T17:56:11;19.60;99.90